FFT1769 KDFW-KSAN
Flight info
| Callsign | FFT1769 |
|---|---|
| Flight time | 3h 0m |
| Altitude | 38000 |
| Route | WSTEX2 CIKAN EWM J4 SSO GBN J2 HOGGZ LUCKI1 |
| Aircraft | A20N/M-SDE2E3FGHIRWXY/LB1 |
Departure
| Time | 2026-05-05 16:32 |
|---|---|
| Airport | Dallas Fort Worth International Airport (KDFW) |
Arrival
| Time | 2026-05-05 19:32 |
|---|---|
| Airport | San Diego International Airport (KSAN) |
| Time | Latitude | Longitude | Altitude | Speed | Heading |
|---|---|---|---|---|---|
| 2026-05-05 15:41 | 32.89279 | -97.03638 | 578 ft | 0 kts | 211° |
| 2026-05-05 16:21 | 32.89280 | -97.03637 | 578 ft | 1 kts | 211° |
| 2026-05-05 16:22 | 32.89304 | -97.03594 | 578 ft | 2 kts | 267° |
| 2026-05-05 16:22 | 32.89297 | -97.03560 | 578 ft | 2 kts | 304° |
| 2026-05-05 16:23 | 32.89285 | -97.03545 | 577 ft | 0 kts | 319° |
| 2026-05-05 16:25 | 32.89309 | -97.03567 | 578 ft | 8 kts | 330° |
| 2026-05-05 16:25 | 32.89380 | -97.03561 | 578 ft | 11 kts | 40° |
| 2026-05-05 16:26 | 32.89394 | -97.03356 | 576 ft | 15 kts | 90° |
| 2026-05-05 16:26 | 32.89452 | -97.03196 | 573 ft | 11 kts | 355° |
| 2026-05-05 16:27 | 32.89543 | -97.03196 | 574 ft | 15 kts | 0° |
| 2026-05-05 16:27 | 32.89660 | -97.03196 | 575 ft | 18 kts | 0° |
| 2026-05-05 16:27 | 32.89800 | -97.03195 | 576 ft | 21 kts | 1° |
| 2026-05-05 16:27 | 32.89959 | -97.03194 | 577 ft | 24 kts | 0° |
| 2026-05-05 16:28 | 32.90126 | -97.03193 | 579 ft | 22 kts | 360° |
| 2026-05-05 16:28 | 32.90284 | -97.03193 | 579 ft | 22 kts | 359° |
| 2026-05-05 16:28 | 32.90440 | -97.03193 | 580 ft | 22 kts | 1° |
| 2026-05-05 16:28 | 32.90601 | -97.03191 | 580 ft | 23 kts | 360° |
| 2026-05-05 16:29 | 32.90762 | -97.03190 | 579 ft | 23 kts | 0° |
| 2026-05-05 16:29 | 32.90924 | -97.03189 | 579 ft | 23 kts | 360° |
| 2026-05-05 16:29 | 32.91093 | -97.03189 | 578 ft | 25 kts | 359° |
| 2026-05-05 16:29 | 32.91274 | -97.03188 | 576 ft | 26 kts | 1° |
| 2026-05-05 16:30 | 32.91450 | -97.03186 | 574 ft | 23 kts | 1° |
| 2026-05-05 16:30 | 32.91550 | -97.03169 | 573 ft | 13 kts | 50° |
| 2026-05-05 16:30 | 32.91557 | -97.03051 | 571 ft | 15 kts | 90° |
| 2026-05-05 16:30 | 32.91527 | -97.02985 | 570 ft | 4 kts | 181° |
| 2026-05-05 16:31 | 32.91519 | -97.02985 | 570 ft | 4 kts | 183° |
| 2026-05-05 16:31 | 32.91281 | -97.02992 | 572 ft | 67 kts | 181° |
| 2026-05-05 16:31 | 32.90606 | -97.02994 | 576 ft | 125 kts | 180° |
| 2026-05-05 16:31 | 32.89560 | -97.03000 | 614 ft | 167 kts | 182° |
| 2026-05-05 16:32 | 32.88427 | -97.03005 | 1234 ft | 162 kts | 183° |
| 2026-05-05 16:32 | 32.87302 | -97.03040 | 1850 ft | 164 kts | 190° |
| 2026-05-05 16:32 | 32.86144 | -97.03221 | 2347 ft | 174 kts | 193° |
| 2026-05-05 16:32 | 32.84898 | -97.03444 | 2824 ft | 187 kts | 193° |
| 2026-05-05 16:33 | 32.83568 | -97.03684 | 3302 ft | 201 kts | 194° |
| 2026-05-05 16:33 | 32.82114 | -97.03909 | 3703 ft | 222 kts | 191° |
| 2026-05-05 16:33 | 32.80508 | -97.04118 | 4176 ft | 240 kts | 191° |
| 2026-05-05 16:33 | 32.78794 | -97.04338 | 4800 ft | 251 kts | 191° |
| 2026-05-05 16:34 | 32.77047 | -97.04568 | 5545 ft | 257 kts | 191° |
| 2026-05-05 16:34 | 32.75264 | -97.04806 | 6288 ft | 262 kts | 192° |
| 2026-05-05 16:34 | 32.73424 | -97.05064 | 7076 ft | 265 kts | 195° |
| 2026-05-05 16:34 | 32.71751 | -97.05795 | 7850 ft | 256 kts | 221° |
| 2026-05-05 16:35 | 32.70563 | -97.07308 | 8607 ft | 252 kts | 243° |
| 2026-05-05 16:35 | 32.69977 | -97.09290 | 9227 ft | 258 kts | 258° |
| 2026-05-05 16:35 | 32.69581 | -97.11371 | 9856 ft | 263 kts | 259° |
| 2026-05-05 16:35 | 32.69265 | -97.13488 | 10589 ft | 265 kts | 263° |
| 2026-05-05 16:36 | 32.69084 | -97.15730 | 10987 ft | 281 kts | 267° |
| 2026-05-05 16:36 | 32.69020 | -97.18130 | 11299 ft | 299 kts | 268° |
| 2026-05-05 16:36 | 32.68967 | -97.20660 | 11595 ft | 316 kts | 268° |
| 2026-05-05 16:36 | 32.68913 | -97.23325 | 12021 ft | 327 kts | 268° |
| 2026-05-05 16:37 | 32.68858 | -97.26018 | 12687 ft | 329 kts | 268° |
| 2026-05-05 16:37 | 32.68804 | -97.28724 | 13360 ft | 330 kts | 268° |
| 2026-05-05 16:37 | 32.68746 | -97.31456 | 14029 ft | 332 kts | 268° |
| 2026-05-05 16:37 | 32.68687 | -97.34216 | 14669 ft | 334 kts | 268° |
| 2026-05-05 16:38 | 32.68629 | -97.36939 | 15286 ft | 336 kts | 268° |
| 2026-05-05 16:38 | 32.68570 | -97.39729 | 15928 ft | 338 kts | 268° |
| 2026-05-05 16:38 | 32.68509 | -97.42509 | 16511 ft | 341 kts | 268° |
| 2026-05-05 16:38 | 32.68448 | -97.45308 | 17122 ft | 343 kts | 268° |
| 2026-05-05 16:39 | 32.68387 | -97.48128 | 17744 ft | 344 kts | 268° |
| 2026-05-05 16:39 | 32.68324 | -97.50986 | 18348 ft | 345 kts | 268° |
| 2026-05-05 16:39 | 32.68260 | -97.53828 | 18937 ft | 346 kts | 268° |
| 2026-05-05 16:39 | 32.68195 | -97.56670 | 19514 ft | 347 kts | 268° |
| 2026-05-05 16:40 | 32.68131 | -97.59530 | 20087 ft | 347 kts | 268° |
| 2026-05-05 16:40 | 32.68065 | -97.62389 | 20641 ft | 348 kts | 268° |
| 2026-05-05 16:40 | 32.67997 | -97.65262 | 21183 ft | 349 kts | 268° |
| 2026-05-05 16:40 | 32.67931 | -97.68115 | 21711 ft | 350 kts | 268° |
| 2026-05-05 16:41 | 32.67860 | -97.71021 | 22234 ft | 350 kts | 268° |
| 2026-05-05 16:41 | 32.67749 | -97.73868 | 22736 ft | 351 kts | 265° |
| 2026-05-05 16:41 | 32.67532 | -97.76780 | 23233 ft | 352 kts | 264° |
| 2026-05-05 16:41 | 32.67310 | -97.79678 | 23696 ft | 354 kts | 264° |
| 2026-05-05 16:42 | 32.67084 | -97.82597 | 24153 ft | 356 kts | 264° |
| 2026-05-05 16:42 | 32.66861 | -97.85506 | 24552 ft | 358 kts | 264° |
| 2026-05-05 16:42 | 32.66630 | -97.88457 | 24970 ft | 360 kts | 265° |
| 2026-05-05 16:42 | 32.66400 | -97.91414 | 25358 ft | 362 kts | 265° |
| 2026-05-05 16:43 | 32.66166 | -97.94401 | 25723 ft | 365 kts | 265° |
| 2026-05-05 16:43 | 32.65931 | -97.97389 | 26090 ft | 367 kts | 265° |
| 2026-05-05 16:43 | 32.65694 | -98.00403 | 26428 ft | 369 kts | 264° |
| 2026-05-05 16:43 | 32.65452 | -98.03449 | 26747 ft | 371 kts | 265° |
| 2026-05-05 16:44 | 32.65210 | -98.06507 | 27093 ft | 372 kts | 265° |
| 2026-05-05 16:44 | 32.64970 | -98.09547 | 27423 ft | 374 kts | 265° |
| 2026-05-05 16:44 | 32.64724 | -98.12651 | 27723 ft | 376 kts | 265° |
| 2026-05-05 16:44 | 32.64476 | -98.15716 | 28016 ft | 377 kts | 264° |
| 2026-05-05 16:45 | 32.64226 | -98.18816 | 28292 ft | 379 kts | 264° |
| 2026-05-05 16:45 | 32.63972 | -98.21952 | 28534 ft | 381 kts | 265° |
| 2026-05-05 16:45 | 32.63717 | -98.25085 | 28785 ft | 382 kts | 265° |
| 2026-05-05 16:45 | 32.63466 | -98.28184 | 29123 ft | 381 kts | 265° |
| 2026-05-05 16:46 | 32.63213 | -98.31338 | 29545 ft | 378 kts | 265° |
| 2026-05-05 16:46 | 32.62966 | -98.34387 | 29942 ft | 376 kts | 265° |
| 2026-05-05 16:46 | 32.62712 | -98.37459 | 30334 ft | 374 kts | 265° |
| 2026-05-05 16:46 | 32.62460 | -98.40543 | 30695 ft | 372 kts | 265° |
| 2026-05-05 16:47 | 32.62214 | -98.43559 | 31029 ft | 371 kts | 265° |
| 2026-05-05 16:47 | 32.61967 | -98.46579 | 31358 ft | 369 kts | 265° |
| 2026-05-05 16:47 | 32.61719 | -98.49593 | 31676 ft | 368 kts | 265° |
| 2026-05-05 16:47 | 32.61470 | -98.52625 | 31985 ft | 366 kts | 264° |
| 2026-05-05 16:48 | 32.61219 | -98.55643 | 32279 ft | 365 kts | 265° |
| 2026-05-05 16:48 | 32.60968 | -98.58637 | 32583 ft | 364 kts | 264° |
| 2026-05-05 16:48 | 32.60721 | -98.61598 | 32863 ft | 362 kts | 265° |
| 2026-05-05 16:48 | 32.60473 | -98.64558 | 33139 ft | 361 kts | 264° |
| 2026-05-05 16:49 | 32.60223 | -98.67500 | 33464 ft | 359 kts | 264° |
| 2026-05-05 16:49 | 32.59975 | -98.70445 | 33786 ft | 358 kts | 264° |
| 2026-05-05 16:49 | 32.59727 | -98.73400 | 34099 ft | 357 kts | 264° |
| 2026-05-05 16:49 | 32.59480 | -98.76315 | 34363 ft | 356 kts | 264° |
| 2026-05-05 16:50 | 32.59233 | -98.79219 | 34631 ft | 355 kts | 264° |
| 2026-05-05 16:50 | 32.58986 | -98.82107 | 34893 ft | 354 kts | 264° |
| 2026-05-05 16:50 | 32.58738 | -98.85021 | 35149 ft | 353 kts | 264° |
| 2026-05-05 16:50 | 32.58488 | -98.87914 | 35397 ft | 352 kts | 264° |
| 2026-05-05 16:51 | 32.58247 | -98.90751 | 35642 ft | 350 kts | 264° |
| 2026-05-05 16:51 | 32.57998 | -98.93643 | 35851 ft | 350 kts | 263° |
| 2026-05-05 16:51 | 32.57748 | -98.96491 | 36032 ft | 349 kts | 264° |
| 2026-05-05 16:51 | 32.57500 | -98.99361 | 36165 ft | 350 kts | 264° |
| 2026-05-05 16:52 | 32.57252 | -99.02235 | 36273 ft | 351 kts | 264° |
| 2026-05-05 16:52 | 32.57004 | -99.05099 | 36389 ft | 351 kts | 264° |
| 2026-05-05 16:52 | 32.56754 | -99.07972 | 36515 ft | 351 kts | 264° |
| 2026-05-05 16:52 | 32.56501 | -99.10850 | 36622 ft | 352 kts | 264° |
| 2026-05-05 16:53 | 32.55996 | -99.16600 | 36792 ft | 353 kts | 263° |
| 2026-05-05 16:53 | 32.55484 | -99.22379 | 36975 ft | 353 kts | 264° |
| 2026-05-05 16:54 | 32.55226 | -99.25262 | 37086 ft | 353 kts | 264° |
| 2026-05-05 16:54 | 32.54971 | -99.28148 | 37162 ft | 353 kts | 264° |
| 2026-05-05 16:54 | 32.54489 | -99.33966 | 37250 ft | 354 kts | 265° |
| 2026-05-05 16:55 | 32.54142 | -99.39745 | 37430 ft | 353 kts | 265° |
| 2026-05-05 16:55 | 32.53793 | -99.45549 | 37527 ft | 354 kts | 265° |
| 2026-05-05 16:56 | 32.53439 | -99.51360 | 37583 ft | 355 kts | 265° |
| 2026-05-05 16:56 | 32.53089 | -99.57192 | 37667 ft | 355 kts | 265° |
| 2026-05-05 16:57 | 32.52728 | -99.63032 | 37720 ft | 355 kts | 264° |
| 2026-05-05 16:57 | 32.52364 | -99.68903 | 37803 ft | 356 kts | 264° |
| 2026-05-05 16:58 | 32.52005 | -99.74737 | 37803 ft | 356 kts | 265° |
| 2026-05-05 16:58 | 32.51643 | -99.80585 | 37802 ft | 356 kts | 264° |
| 2026-05-05 16:59 | 32.51277 | -99.86420 | 37804 ft | 356 kts | 265° |
| 2026-05-05 16:59 | 32.50904 | -99.92275 | 37805 ft | 355 kts | 264° |
| 2026-05-05 17:00 | 32.50532 | -99.98090 | 37804 ft | 356 kts | 264° |
| 2026-05-05 17:00 | 32.50158 | -100.03921 | 37807 ft | 357 kts | 264° |
| 2026-05-05 17:01 | 32.49778 | -100.09758 | 37810 ft | 356 kts | 264° |
| 2026-05-05 17:01 | 32.49397 | -100.15601 | 37816 ft | 356 kts | 264° |
| 2026-05-05 17:02 | 32.49012 | -100.21446 | 37829 ft | 355 kts | 264° |
| 2026-05-05 17:02 | 32.48624 | -100.27273 | 37839 ft | 355 kts | 264° |
| 2026-05-05 17:03 | 32.48238 | -100.33092 | 37848 ft | 356 kts | 264° |
| 2026-05-05 17:03 | 32.47859 | -100.38903 | 37852 ft | 356 kts | 263° |
| 2026-05-05 17:04 | 32.47470 | -100.44741 | 37855 ft | 356 kts | 264° |
| 2026-05-05 17:04 | 32.47084 | -100.50575 | 37860 ft | 356 kts | 264° |
| 2026-05-05 17:05 | 32.46690 | -100.56451 | 37859 ft | 356 kts | 264° |
| 2026-05-05 17:05 | 32.46293 | -100.62327 | 37857 ft | 356 kts | 263° |
| 2026-05-05 17:06 | 32.45897 | -100.68149 | 37861 ft | 356 kts | 263° |
| 2026-05-05 17:06 | 32.45496 | -100.73993 | 37855 ft | 356 kts | 263° |
| 2026-05-05 17:07 | 32.45097 | -100.79834 | 37856 ft | 356 kts | 263° |
| 2026-05-05 17:07 | 32.44690 | -100.85684 | 37855 ft | 357 kts | 263° |
| 2026-05-05 17:08 | 32.44280 | -100.91558 | 37860 ft | 356 kts | 262° |
| 2026-05-05 17:08 | 32.43870 | -100.97375 | 37859 ft | 357 kts | 262° |
| 2026-05-05 17:09 | 32.43454 | -101.03253 | 37861 ft | 357 kts | 263° |
| 2026-05-05 17:09 | 32.43036 | -101.09091 | 37867 ft | 356 kts | 262° |
| 2026-05-05 17:10 | 32.42617 | -101.14947 | 37869 ft | 357 kts | 263° |
| 2026-05-05 17:10 | 32.42195 | -101.20763 | 37875 ft | 356 kts | 263° |
| 2026-05-05 17:11 | 32.41770 | -101.26603 | 37873 ft | 356 kts | 263° |
| 2026-05-05 17:11 | 32.41346 | -101.32436 | 37873 ft | 356 kts | 263° |
| 2026-05-05 17:12 | 32.40918 | -101.38223 | 37875 ft | 355 kts | 262° |
| 2026-05-05 17:12 | 32.40487 | -101.44053 | 37886 ft | 355 kts | 262° |
| 2026-05-05 17:13 | 32.40053 | -101.49866 | 37893 ft | 355 kts | 262° |
| 2026-05-05 17:13 | 32.39616 | -101.55667 | 37894 ft | 354 kts | 262° |
| 2026-05-05 17:14 | 32.39179 | -101.61461 | 37898 ft | 354 kts | 262° |
| 2026-05-05 17:14 | 32.38739 | -101.67250 | 37898 ft | 354 kts | 262° |
| 2026-05-05 17:15 | 32.38296 | -101.73038 | 37903 ft | 353 kts | 262° |
| 2026-05-05 17:15 | 32.37852 | -101.78809 | 37902 ft | 353 kts | 262° |
| 2026-05-05 17:16 | 32.37410 | -101.84564 | 37902 ft | 353 kts | 262° |
| 2026-05-05 17:16 | 32.36961 | -101.90334 | 37901 ft | 353 kts | 262° |
| 2026-05-05 17:17 | 32.36508 | -101.96104 | 37909 ft | 353 kts | 262° |
| 2026-05-05 17:17 | 32.36059 | -102.01845 | 37910 ft | 353 kts | 262° |
| 2026-05-05 17:18 | 32.35599 | -102.07622 | 37907 ft | 352 kts | 262° |
| 2026-05-05 17:18 | 32.35144 | -102.13357 | 37912 ft | 353 kts | 262° |
| 2026-05-05 17:19 | 32.34680 | -102.19129 | 37918 ft | 353 kts | 262° |
| 2026-05-05 17:19 | 32.34215 | -102.24895 | 37920 ft | 352 kts | 262° |
| 2026-05-05 17:20 | 32.33751 | -102.30629 | 37924 ft | 352 kts | 262° |
| 2026-05-05 17:20 | 32.33285 | -102.36366 | 37928 ft | 351 kts | 262° |
| 2026-05-05 17:21 | 32.32814 | -102.42098 | 37929 ft | 351 kts | 262° |
| 2026-05-05 17:22 | 32.32105 | -102.50708 | 37939 ft | 351 kts | 262° |
| 2026-05-05 17:22 | 32.31631 | -102.56410 | 37939 ft | 350 kts | 262° |
| 2026-05-05 17:23 | 32.31151 | -102.62144 | 37944 ft | 351 kts | 262° |
| 2026-05-05 17:23 | 32.30669 | -102.67865 | 37954 ft | 350 kts | 261° |
| 2026-05-05 17:24 | 32.30188 | -102.73570 | 37950 ft | 350 kts | 261° |
| 2026-05-05 17:24 | 32.29700 | -102.79319 | 37956 ft | 350 kts | 261° |
| 2026-05-05 17:25 | 32.29215 | -102.85003 | 37956 ft | 350 kts | 261° |
| 2026-05-05 17:25 | 32.28725 | -102.90706 | 37956 ft | 349 kts | 261° |
| 2026-05-05 17:26 | 32.28234 | -102.96417 | 37964 ft | 350 kts | 261° |
| 2026-05-05 17:26 | 32.27736 | -103.02155 | 37962 ft | 349 kts | 261° |
| 2026-05-05 17:27 | 32.27244 | -103.07818 | 37961 ft | 349 kts | 261° |
| 2026-05-05 17:27 | 32.26741 | -103.13520 | 37965 ft | 348 kts | 260° |
| 2026-05-05 17:28 | 32.26243 | -103.19205 | 37959 ft | 348 kts | 260° |
| 2026-05-05 17:28 | 32.25742 | -103.24839 | 37965 ft | 347 kts | 261° |
| 2026-05-05 17:29 | 32.25235 | -103.30508 | 37964 ft | 347 kts | 260° |
| 2026-05-05 17:29 | 32.24728 | -103.36187 | 37964 ft | 346 kts | 260° |
| 2026-05-05 17:30 | 32.24218 | -103.41852 | 37966 ft | 347 kts | 260° |
| 2026-05-05 17:30 | 32.23708 | -103.47475 | 37977 ft | 346 kts | 260° |
| 2026-05-05 17:31 | 32.23195 | -103.53126 | 37974 ft | 346 kts | 260° |
| 2026-05-05 17:31 | 32.22677 | -103.58785 | 37974 ft | 346 kts | 260° |
| 2026-05-05 17:32 | 32.22158 | -103.64414 | 37981 ft | 345 kts | 260° |
| 2026-05-05 17:32 | 32.21637 | -103.70077 | 37982 ft | 345 kts | 259° |
| 2026-05-05 17:33 | 32.21118 | -103.75706 | 37976 ft | 345 kts | 259° |
| 2026-05-05 17:33 | 32.20593 | -103.81308 | 37973 ft | 344 kts | 259° |
| 2026-05-05 17:34 | 32.20067 | -103.86941 | 37972 ft | 344 kts | 259° |
| 2026-05-05 17:34 | 32.19541 | -103.92546 | 37969 ft | 345 kts | 259° |
| 2026-05-05 17:35 | 32.19006 | -103.98202 | 37967 ft | 344 kts | 259° |
| 2026-05-05 17:35 | 32.18472 | -104.03815 | 37958 ft | 345 kts | 259° |
| 2026-05-05 17:36 | 32.17934 | -104.09421 | 37961 ft | 344 kts | 259° |
| 2026-05-05 17:36 | 32.17397 | -104.15031 | 37966 ft | 344 kts | 259° |
| 2026-05-05 17:37 | 32.16860 | -104.20621 | 37970 ft | 344 kts | 259° |
| 2026-05-05 17:37 | 32.16316 | -104.26259 | 37963 ft | 344 kts | 259° |
| 2026-05-05 17:38 | 32.15766 | -104.31865 | 37978 ft | 344 kts | 259° |
| 2026-05-05 17:38 | 32.15226 | -104.37444 | 37990 ft | 344 kts | 258° |
| 2026-05-05 17:39 | 32.14671 | -104.43063 | 37995 ft | 344 kts | 258° |
| 2026-05-05 17:39 | 32.14120 | -104.48650 | 38000 ft | 344 kts | 259° |
| 2026-05-05 17:40 | 32.13570 | -104.54253 | 38013 ft | 343 kts | 258° |
| 2026-05-05 17:40 | 32.13016 | -104.59828 | 38020 ft | 343 kts | 258° |
| 2026-05-05 17:41 | 32.12455 | -104.65425 | 38050 ft | 343 kts | 258° |
| 2026-05-05 17:41 | 32.11890 | -104.71048 | 38055 ft | 344 kts | 257° |
| 2026-05-05 17:42 | 32.11324 | -104.76637 | 38068 ft | 343 kts | 257° |
| 2026-05-05 17:42 | 32.10760 | -104.82219 | 38067 ft | 343 kts | 256° |
| 2026-05-05 17:43 | 32.10190 | -104.87823 | 38059 ft | 344 kts | 257° |
| 2026-05-05 17:43 | 32.09618 | -104.93428 | 38061 ft | 344 kts | 257° |
| 2026-05-05 17:44 | 32.09040 | -104.99014 | 38054 ft | 344 kts | 257° |
| 2026-05-05 17:44 | 32.08463 | -105.04599 | 38039 ft | 343 kts | 257° |
| 2026-05-05 17:45 | 32.07887 | -105.10175 | 38041 ft | 343 kts | 257° |
| 2026-05-05 17:45 | 32.07310 | -105.15746 | 38045 ft | 344 kts | 257° |
| 2026-05-05 17:46 | 32.06722 | -105.21365 | 38049 ft | 345 kts | 256° |
| 2026-05-05 17:46 | 32.06131 | -105.26966 | 38051 ft | 344 kts | 257° |
| 2026-05-05 17:47 | 32.05537 | -105.32587 | 38055 ft | 345 kts | 257° |
| 2026-05-05 17:47 | 32.04946 | -105.38174 | 38066 ft | 345 kts | 257° |
| 2026-05-05 17:48 | 32.04351 | -105.43800 | 38069 ft | 345 kts | 257° |
| 2026-05-05 17:48 | 32.03750 | -105.49425 | 38069 ft | 346 kts | 257° |
| 2026-05-05 17:49 | 32.03152 | -105.55029 | 38073 ft | 347 kts | 257° |
| 2026-05-05 17:49 | 32.02541 | -105.60674 | 38071 ft | 346 kts | 257° |
| 2026-05-05 17:50 | 32.01933 | -105.66325 | 38079 ft | 346 kts | 257° |
| 2026-05-05 17:50 | 32.01320 | -105.71934 | 38077 ft | 346 kts | 257° |
| 2026-05-05 17:51 | 32.00707 | -105.77579 | 38073 ft | 346 kts | 257° |
| 2026-05-05 17:51 | 32.00091 | -105.83191 | 38073 ft | 347 kts | 257° |
| 2026-05-05 17:52 | 31.99473 | -105.88841 | 38085 ft | 347 kts | 256° |
| 2026-05-05 17:52 | 31.98849 | -105.94489 | 38096 ft | 348 kts | 257° |
| 2026-05-05 17:53 | 31.98219 | -106.00137 | 38104 ft | 347 kts | 257° |
| 2026-05-05 17:53 | 31.97597 | -106.05756 | 38098 ft | 348 kts | 256° |
| 2026-05-05 17:54 | 31.96965 | -106.11380 | 38087 ft | 348 kts | 256° |
| 2026-05-05 17:54 | 31.96326 | -106.17065 | 38073 ft | 349 kts | 256° |
| 2026-05-05 17:55 | 31.95845 | -106.22755 | 38067 ft | 352 kts | 260° |
| 2026-05-05 17:55 | 31.95762 | -106.28551 | 38058 ft | 355 kts | 264° |
| 2026-05-05 17:56 | 31.96088 | -106.34377 | 38056 ft | 360 kts | 267° |
| 2026-05-05 17:56 | 31.96740 | -106.40242 | 38059 ft | 359 kts | 268° |
| 2026-05-05 17:57 | 31.97405 | -106.46048 | 38059 ft | 359 kts | 269° |
| 2026-05-05 17:57 | 31.98077 | -106.51869 | 38065 ft | 359 kts | 268° |
| 2026-05-05 17:58 | 31.98751 | -106.57697 | 38064 ft | 359 kts | 268° |
| 2026-05-05 17:58 | 31.99416 | -106.63497 | 38062 ft | 358 kts | 268° |
| 2026-05-05 17:59 | 32.00089 | -106.69330 | 38062 ft | 358 kts | 268° |
| 2026-05-05 17:59 | 32.00757 | -106.75158 | 38058 ft | 359 kts | 267° |
| 2026-05-05 18:00 | 32.01419 | -106.80983 | 38061 ft | 358 kts | 268° |
| 2026-05-05 18:00 | 32.02078 | -106.86781 | 38054 ft | 358 kts | 268° |
| 2026-05-05 18:01 | 32.02739 | -106.92601 | 38058 ft | 359 kts | 267° |
| 2026-05-05 18:01 | 32.03397 | -106.98436 | 38063 ft | 358 kts | 268° |
| 2026-05-05 18:02 | 32.04046 | -107.04224 | 38061 ft | 358 kts | 268° |
| 2026-05-05 18:02 | 32.04697 | -107.10039 | 38063 ft | 358 kts | 267° |
| 2026-05-05 18:03 | 32.05352 | -107.15899 | 38071 ft | 358 kts | 267° |
| 2026-05-05 18:03 | 32.05991 | -107.21683 | 38081 ft | 356 kts | 268° |
| 2026-05-05 18:04 | 32.06633 | -107.27473 | 38079 ft | 356 kts | 267° |
| 2026-05-05 18:04 | 32.07270 | -107.33262 | 38082 ft | 357 kts | 267° |
| 2026-05-05 18:05 | 32.07901 | -107.39033 | 38079 ft | 356 kts | 267° |
| 2026-05-05 18:05 | 32.08528 | -107.44804 | 38077 ft | 355 kts | 267° |
| 2026-05-05 18:06 | 32.09166 | -107.50639 | 38075 ft | 356 kts | 267° |
| 2026-05-05 18:06 | 32.09768 | -107.56384 | 38080 ft | 355 kts | 265° |
| 2026-05-05 18:07 | 32.10389 | -107.62161 | 38070 ft | 356 kts | 268° |
| 2026-05-05 18:07 | 32.11027 | -107.67968 | 38071 ft | 357 kts | 268° |
| 2026-05-05 18:08 | 32.11650 | -107.73770 | 38068 ft | 356 kts | 267° |
| 2026-05-05 18:08 | 32.12265 | -107.79526 | 38067 ft | 355 kts | 268° |
| 2026-05-05 18:09 | 32.12874 | -107.85304 | 38062 ft | 355 kts | 266° |
| 2026-05-05 18:09 | 32.13477 | -107.91076 | 38064 ft | 355 kts | 267° |
| 2026-05-05 18:10 | 32.14084 | -107.96856 | 38061 ft | 356 kts | 266° |
| 2026-05-05 18:10 | 32.14682 | -108.02631 | 38055 ft | 355 kts | 267° |
| 2026-05-05 18:11 | 32.15285 | -108.08424 | 38063 ft | 355 kts | 267° |
| 2026-05-05 18:11 | 32.15881 | -108.14217 | 38059 ft | 354 kts | 267° |
| 2026-05-05 18:12 | 32.16473 | -108.19942 | 38054 ft | 354 kts | 266° |
| 2026-05-05 18:12 | 32.17062 | -108.25705 | 38057 ft | 354 kts | 267° |
| 2026-05-05 18:13 | 32.17653 | -108.31461 | 38065 ft | 355 kts | 266° |
| 2026-05-05 18:13 | 32.18241 | -108.37254 | 38060 ft | 356 kts | 266° |
| 2026-05-05 18:14 | 32.18827 | -108.43049 | 38058 ft | 354 kts | 266° |
| 2026-05-05 18:14 | 32.19406 | -108.48842 | 38056 ft | 355 kts | 266° |
| 2026-05-05 18:15 | 32.19985 | -108.54609 | 38055 ft | 356 kts | 266° |
| 2026-05-05 18:15 | 32.20561 | -108.60420 | 38051 ft | 355 kts | 266° |
| 2026-05-05 18:16 | 32.21134 | -108.66219 | 38056 ft | 354 kts | 266° |
| 2026-05-05 18:16 | 32.21705 | -108.71986 | 38053 ft | 354 kts | 266° |
| 2026-05-05 18:17 | 32.22272 | -108.77760 | 38049 ft | 354 kts | 266° |
| 2026-05-05 18:17 | 32.22834 | -108.83510 | 38052 ft | 354 kts | 266° |
| 2026-05-05 18:18 | 32.23402 | -108.89316 | 38046 ft | 355 kts | 266° |
| 2026-05-05 18:18 | 32.23963 | -108.95129 | 38054 ft | 356 kts | 265° |
| 2026-05-05 18:19 | 32.24524 | -109.00926 | 38057 ft | 355 kts | 265° |
| 2026-05-05 18:19 | 32.25080 | -109.06724 | 38051 ft | 354 kts | 265° |
| 2026-05-05 18:20 | 32.25633 | -109.12530 | 38048 ft | 355 kts | 265° |
| 2026-05-05 18:20 | 32.26179 | -109.18359 | 38043 ft | 355 kts | 265° |
| 2026-05-05 18:21 | 32.26783 | -109.24161 | 38045 ft | 358 kts | 268° |
| 2026-05-05 18:21 | 32.27770 | -109.29993 | 38042 ft | 364 kts | 272° |
| 2026-05-05 18:22 | 32.29015 | -109.35821 | 38042 ft | 365 kts | 272° |
| 2026-05-05 18:22 | 32.30260 | -109.41642 | 38041 ft | 365 kts | 272° |
| 2026-05-05 18:23 | 32.31508 | -109.47452 | 38037 ft | 368 kts | 271° |
| 2026-05-05 18:23 | 32.32769 | -109.53357 | 38039 ft | 368 kts | 272° |
| 2026-05-05 18:24 | 32.34019 | -109.59211 | 38030 ft | 366 kts | 272° |
| 2026-05-05 18:24 | 32.35259 | -109.65012 | 38031 ft | 367 kts | 271° |
| 2026-05-05 18:25 | 32.36508 | -109.70903 | 38030 ft | 365 kts | 272° |
| 2026-05-05 18:25 | 32.37743 | -109.76699 | 38027 ft | 365 kts | 271° |
| 2026-05-05 18:26 | 32.38982 | -109.82561 | 38022 ft | 366 kts | 271° |
| 2026-05-05 18:26 | 32.40214 | -109.88377 | 38025 ft | 366 kts | 271° |
| 2026-05-05 18:27 | 32.41448 | -109.94241 | 38021 ft | 366 kts | 271° |
| 2026-05-05 18:27 | 32.42679 | -110.00101 | 38016 ft | 367 kts | 271° |
| 2026-05-05 18:28 | 32.44514 | -110.08870 | 38014 ft | 366 kts | 271° |
| 2026-05-05 18:28 | 32.45737 | -110.14718 | 38018 ft | 367 kts | 271° |
| 2026-05-05 18:29 | 32.46963 | -110.20599 | 38018 ft | 366 kts | 271° |
| 2026-05-05 18:29 | 32.48186 | -110.26477 | 38021 ft | 367 kts | 272° |
| 2026-05-05 18:30 | 32.49392 | -110.32295 | 38018 ft | 366 kts | 271° |
| 2026-05-05 18:30 | 32.50606 | -110.38169 | 38011 ft | 366 kts | 272° |
| 2026-05-05 18:31 | 32.51814 | -110.44022 | 38001 ft | 366 kts | 272° |
| 2026-05-05 18:31 | 32.53031 | -110.49931 | 37998 ft | 367 kts | 272° |
| 2026-05-05 18:32 | 32.54232 | -110.55778 | 37991 ft | 367 kts | 271° |
| 2026-05-05 18:32 | 32.55433 | -110.61659 | 38006 ft | 366 kts | 272° |
| 2026-05-05 18:33 | 32.56636 | -110.67533 | 38017 ft | 366 kts | 271° |
| 2026-05-05 18:33 | 32.57837 | -110.73433 | 38015 ft | 366 kts | 272° |
| 2026-05-05 18:34 | 32.59023 | -110.79269 | 38013 ft | 366 kts | 271° |
| 2026-05-05 18:34 | 32.60221 | -110.85181 | 38012 ft | 367 kts | 271° |
| 2026-05-05 18:35 | 32.61409 | -110.91068 | 38005 ft | 366 kts | 271° |
| 2026-05-05 18:35 | 32.62585 | -110.96899 | 38003 ft | 366 kts | 272° |
| 2026-05-05 18:36 | 32.63769 | -111.02779 | 37994 ft | 367 kts | 272° |
| 2026-05-05 18:36 | 32.64948 | -111.08669 | 37988 ft | 367 kts | 272° |
| 2026-05-05 18:37 | 32.66133 | -111.14587 | 37981 ft | 367 kts | 272° |
| 2026-05-05 18:37 | 32.67308 | -111.20475 | 37975 ft | 368 kts | 271° |
| 2026-05-05 18:38 | 32.68489 | -111.26395 | 37972 ft | 369 kts | 271° |
| 2026-05-05 18:38 | 32.69672 | -111.32365 | 37967 ft | 369 kts | 272° |
| 2026-05-05 18:39 | 32.70837 | -111.38246 | 37960 ft | 369 kts | 272° |
| 2026-05-05 18:39 | 32.72015 | -111.44212 | 37952 ft | 370 kts | 272° |
| 2026-05-05 18:40 | 32.73181 | -111.50133 | 37941 ft | 370 kts | 272° |
| 2026-05-05 18:40 | 32.74353 | -111.56100 | 37934 ft | 371 kts | 272° |
| 2026-05-05 18:41 | 32.75526 | -111.62083 | 37927 ft | 371 kts | 272° |
| 2026-05-05 18:41 | 32.76687 | -111.68032 | 37924 ft | 371 kts | 272° |
| 2026-05-05 18:42 | 32.77855 | -111.74021 | 37921 ft | 371 kts | 271° |
| 2026-05-05 18:42 | 32.79018 | -111.80008 | 37921 ft | 371 kts | 272° |
| 2026-05-05 18:43 | 32.80171 | -111.85956 | 37925 ft | 372 kts | 272° |
| 2026-05-05 18:43 | 32.81330 | -111.91952 | 37933 ft | 371 kts | 272° |
| 2026-05-05 18:44 | 32.82486 | -111.97946 | 37926 ft | 372 kts | 271° |
| 2026-05-05 18:44 | 32.83639 | -112.03953 | 37928 ft | 373 kts | 272° |
| 2026-05-05 18:45 | 32.84801 | -112.10017 | 37925 ft | 374 kts | 272° |
| 2026-05-05 18:45 | 32.85963 | -112.16087 | 37929 ft | 375 kts | 272° |
| 2026-05-05 18:46 | 32.87117 | -112.22149 | 37928 ft | 376 kts | 272° |
| 2026-05-05 18:46 | 32.88271 | -112.28227 | 37932 ft | 375 kts | 272° |
| 2026-05-05 18:47 | 32.89423 | -112.34297 | 37930 ft | 375 kts | 272° |
| 2026-05-05 18:47 | 32.90566 | -112.40354 | 37931 ft | 376 kts | 272° |
| 2026-05-05 18:48 | 32.91702 | -112.46397 | 37929 ft | 375 kts | 272° |
| 2026-05-05 18:48 | 32.92849 | -112.52512 | 37931 ft | 376 kts | 272° |
| 2026-05-05 18:49 | 32.93916 | -112.58603 | 37936 ft | 373 kts | 270° |
| 2026-05-05 18:49 | 32.94524 | -112.64710 | 37928 ft | 368 kts | 266° |
| 2026-05-05 18:50 | 32.94637 | -112.70759 | 37929 ft | 364 kts | 261° |
| 2026-05-05 18:50 | 32.94270 | -112.76746 | 37933 ft | 360 kts | 256° |
| 2026-05-05 18:51 | 32.93531 | -112.82628 | 37931 ft | 358 kts | 256° |
| 2026-05-05 18:51 | 32.92757 | -112.88522 | 37935 ft | 360 kts | 255° |
| 2026-05-05 18:52 | 32.91966 | -112.94424 | 37939 ft | 360 kts | 255° |
| 2026-05-05 18:52 | 32.91177 | -113.00291 | 37928 ft | 362 kts | 255° |
| 2026-05-05 18:53 | 32.90374 | -113.06196 | 37940 ft | 362 kts | 255° |
| 2026-05-05 18:53 | 32.89563 | -113.12114 | 37927 ft | 362 kts | 255° |
| 2026-05-05 18:54 | 32.88753 | -113.18018 | 37925 ft | 365 kts | 255° |
| 2026-05-05 18:54 | 32.87928 | -113.23998 | 37925 ft | 365 kts | 255° |
| 2026-05-05 18:55 | 32.87113 | -113.29918 | 37925 ft | 365 kts | 255° |
| 2026-05-05 18:55 | 32.86285 | -113.35868 | 37931 ft | 365 kts | 255° |
| 2026-05-05 18:56 | 32.85450 | -113.41876 | 37916 ft | 366 kts | 255° |
| 2026-05-05 18:56 | 32.84609 | -113.47876 | 37925 ft | 368 kts | 256° |
| 2026-05-05 18:57 | 32.83771 | -113.53854 | 37924 ft | 367 kts | 255° |
| 2026-05-05 18:57 | 32.82924 | -113.59850 | 37911 ft | 369 kts | 255° |
| 2026-05-05 18:58 | 32.82071 | -113.65862 | 37927 ft | 368 kts | 256° |
| 2026-05-05 18:58 | 32.81213 | -113.71917 | 37925 ft | 370 kts | 255° |
| 2026-05-05 18:59 | 32.80356 | -113.77955 | 37916 ft | 369 kts | 256° |
| 2026-05-05 18:59 | 32.79491 | -113.83996 | 37918 ft | 370 kts | 255° |
| 2026-05-05 19:00 | 32.78622 | -113.90028 | 37911 ft | 372 kts | 255° |
| 2026-05-05 19:00 | 32.77875 | -113.96152 | 37906 ft | 374 kts | 258° |
| 2026-05-05 19:01 | 32.77565 | -114.02371 | 37915 ft | 378 kts | 262° |
| 2026-05-05 19:01 | 32.77591 | -114.08636 | 37889 ft | 382 kts | 266° |
| 2026-05-05 19:02 | 32.77835 | -114.14922 | 37902 ft | 383 kts | 266° |
| 2026-05-05 19:02 | 32.78074 | -114.21272 | 37907 ft | 385 kts | 266° |
| 2026-05-05 19:03 | 32.78328 | -114.27652 | 37917 ft | 386 kts | 266° |
| 2026-05-05 19:03 | 32.78722 | -114.33921 | 37907 ft | 390 kts | 269° |
| 2026-05-05 19:04 | 32.79610 | -114.40323 | 37914 ft | 396 kts | 275° |
| 2026-05-05 19:04 | 32.81012 | -114.46682 | 37914 ft | 400 kts | 279° |
| 2026-05-05 19:05 | 32.82729 | -114.53020 | 37901 ft | 400 kts | 280° |
| 2026-05-05 19:05 | 32.84461 | -114.59358 | 37911 ft | 401 kts | 281° |
| 2026-05-05 19:06 | 32.86028 | -114.65693 | 37915 ft | 398 kts | 276° |
| 2026-05-05 19:06 | 32.87078 | -114.72195 | 37892 ft | 396 kts | 271° |
| 2026-05-05 19:07 | 32.87603 | -114.78712 | 37910 ft | 395 kts | 266° |
| 2026-05-05 19:07 | 32.87624 | -114.85270 | 37892 ft | 395 kts | 263° |
| 2026-05-05 19:08 | 32.87492 | -114.91795 | 37622 ft | 397 kts | 263° |
| 2026-05-05 19:08 | 32.87424 | -114.95044 | 37218 ft | 392 kts | 264° |
| 2026-05-05 19:08 | 32.87359 | -114.98274 | 36669 ft | 389 kts | 263° |
| 2026-05-05 19:09 | 32.87289 | -115.01479 | 36018 ft | 388 kts | 263° |
| 2026-05-05 19:09 | 32.87219 | -115.04678 | 35340 ft | 387 kts | 262° |
| 2026-05-05 19:09 | 32.87145 | -115.07862 | 34655 ft | 386 kts | 263° |
| 2026-05-05 19:09 | 32.87068 | -115.11059 | 33825 ft | 385 kts | 262° |
| 2026-05-05 19:10 | 32.86989 | -115.14247 | 33243 ft | 383 kts | 262° |
| 2026-05-05 19:10 | 32.86915 | -115.17400 | 32550 ft | 383 kts | 262° |
| 2026-05-05 19:10 | 32.86836 | -115.20516 | 31812 ft | 384 kts | 262° |
| 2026-05-05 19:10 | 32.86757 | -115.23700 | 31042 ft | 385 kts | 262° |
| 2026-05-05 19:11 | 32.86676 | -115.26856 | 30260 ft | 385 kts | 262° |
| 2026-05-05 19:11 | 32.86593 | -115.30019 | 29461 ft | 387 kts | 262° |
| 2026-05-05 19:11 | 32.86418 | -115.33212 | 28585 ft | 390 kts | 260° |
| 2026-05-05 19:11 | 32.86109 | -115.36424 | 27917 ft | 388 kts | 259° |
| 2026-05-05 19:12 | 32.85697 | -115.39562 | 27321 ft | 385 kts | 258° |
| 2026-05-05 19:12 | 32.85268 | -115.42702 | 26746 ft | 383 kts | 258° |
| 2026-05-05 19:12 | 32.84841 | -115.45814 | 26217 ft | 380 kts | 259° |
| 2026-05-05 19:12 | 32.84410 | -115.48898 | 25702 ft | 379 kts | 258° |
| 2026-05-05 19:13 | 32.83924 | -115.51997 | 25575 ft | 386 kts | 258° |
| 2026-05-05 19:13 | 32.83407 | -115.55154 | 25578 ft | 390 kts | 258° |
| 2026-05-05 19:13 | 32.82887 | -115.58315 | 25540 ft | 391 kts | 258° |
| 2026-05-05 19:13 | 32.82364 | -115.61488 | 25213 ft | 391 kts | 258° |
| 2026-05-05 19:14 | 32.81836 | -115.64678 | 24616 ft | 390 kts | 259° |
| 2026-05-05 19:14 | 32.81322 | -115.67790 | 24038 ft | 390 kts | 259° |
| 2026-05-05 19:14 | 32.80790 | -115.71021 | 23301 ft | 391 kts | 259° |
| 2026-05-05 19:14 | 32.80273 | -115.74179 | 22608 ft | 391 kts | 259° |
| 2026-05-05 19:15 | 32.79750 | -115.77356 | 21929 ft | 390 kts | 259° |
| 2026-05-05 19:15 | 32.79236 | -115.80477 | 21297 ft | 388 kts | 259° |
| 2026-05-05 19:15 | 32.78741 | -115.83643 | 20690 ft | 385 kts | 261° |
| 2026-05-05 19:15 | 32.78392 | -115.86748 | 20112 ft | 382 kts | 264° |
| 2026-05-05 19:16 | 32.78150 | -115.89853 | 19540 ft | 379 kts | 265° |
| 2026-05-05 19:16 | 32.77916 | -115.92990 | 18963 ft | 376 kts | 265° |
| 2026-05-05 19:16 | 32.77689 | -115.96037 | 18393 ft | 374 kts | 265° |
| 2026-05-05 19:16 | 32.77459 | -115.99111 | 17821 ft | 371 kts | 265° |
| 2026-05-05 19:17 | 32.77231 | -116.02144 | 17272 ft | 369 kts | 265° |
| 2026-05-05 19:17 | 32.77002 | -116.05183 | 16714 ft | 368 kts | 265° |
| 2026-05-05 19:17 | 32.76775 | -116.08179 | 16161 ft | 367 kts | 265° |
| 2026-05-05 19:17 | 32.76547 | -116.11194 | 15580 ft | 366 kts | 265° |
| 2026-05-05 19:18 | 32.76317 | -116.14217 | 15024 ft | 364 kts | 265° |
| 2026-05-05 19:18 | 32.76091 | -116.17165 | 14459 ft | 363 kts | 265° |
| 2026-05-05 19:18 | 32.75860 | -116.20161 | 14031 ft | 356 kts | 265° |
| 2026-05-05 19:18 | 32.75639 | -116.23021 | 13820 ft | 347 kts | 265° |
| 2026-05-05 19:19 | 32.75426 | -116.25769 | 13533 ft | 338 kts | 265° |
| 2026-05-05 19:19 | 32.75214 | -116.28510 | 13287 ft | 327 kts | 266° |
| 2026-05-05 19:19 | 32.75007 | -116.31200 | 12919 ft | 322 kts | 266° |
| 2026-05-05 19:19 | 32.74805 | -116.33816 | 12493 ft | 319 kts | 266° |
| 2026-05-05 19:20 | 32.74603 | -116.36437 | 12003 ft | 317 kts | 266° |
| 2026-05-05 19:20 | 32.74401 | -116.39033 | 11630 ft | 312 kts | 266° |
| 2026-05-05 19:20 | 32.74202 | -116.41569 | 11173 ft | 310 kts | 266° |
| 2026-05-05 19:20 | 32.74006 | -116.44068 | 10732 ft | 308 kts | 266° |
| 2026-05-05 19:21 | 32.73808 | -116.46585 | 10443 ft | 300 kts | 266° |
| 2026-05-05 19:21 | 32.73618 | -116.48988 | 10318 ft | 288 kts | 266° |
| 2026-05-05 19:21 | 32.73425 | -116.51314 | 10099 ft | 280 kts | 265° |
| 2026-05-05 19:21 | 32.73207 | -116.53612 | 9724 ft | 278 kts | 265° |
| 2026-05-05 19:22 | 32.72982 | -116.55895 | 9342 ft | 276 kts | 265° |
| 2026-05-05 19:22 | 32.72763 | -116.58122 | 8995 ft | 273 kts | 265° |
| 2026-05-05 19:22 | 32.72543 | -116.60368 | 8648 ft | 270 kts | 265° |
| 2026-05-05 19:22 | 32.72329 | -116.62572 | 8309 ft | 268 kts | 265° |
| 2026-05-05 19:23 | 32.72117 | -116.64761 | 7971 ft | 266 kts | 265° |
| 2026-05-05 19:23 | 32.71916 | -116.66935 | 7608 ft | 265 kts | 265° |
| 2026-05-05 19:23 | 32.71744 | -116.69115 | 7201 ft | 265 kts | 266° |
| 2026-05-05 19:23 | 32.71579 | -116.71290 | 6788 ft | 265 kts | 266° |
| 2026-05-05 19:24 | 32.71412 | -116.73460 | 6390 ft | 265 kts | 265° |
| 2026-05-05 19:24 | 32.71245 | -116.75618 | 6107 ft | 259 kts | 265° |
| 2026-05-05 19:24 | 32.71081 | -116.77692 | 6049 ft | 246 kts | 265° |
| 2026-05-05 19:24 | 32.70924 | -116.79658 | 5979 ft | 233 kts | 265° |
| 2026-05-05 19:25 | 32.70721 | -116.81528 | 5936 ft | 223 kts | 259° |
| 2026-05-05 19:25 | 32.70304 | -116.83276 | 5799 ft | 220 kts | 252° |
| 2026-05-05 19:25 | 32.69783 | -116.84972 | 5564 ft | 219 kts | 251° |
| 2026-05-05 19:25 | 32.69249 | -116.86658 | 5320 ft | 218 kts | 251° |
| 2026-05-05 19:26 | 32.68718 | -116.88341 | 5068 ft | 218 kts | 252° |
| 2026-05-05 19:26 | 32.68205 | -116.90054 | 4752 ft | 217 kts | 252° |
| 2026-05-05 19:26 | 32.67709 | -116.91739 | 4481 ft | 215 kts | 253° |
| 2026-05-05 19:26 | 32.67450 | -116.93462 | 4232 ft | 210 kts | 271° |
| 2026-05-05 19:27 | 32.67597 | -116.95151 | 4000 ft | 205 kts | 282° |
| 2026-05-05 19:27 | 32.67956 | -116.96784 | 3769 ft | 202 kts | 287° |
| 2026-05-05 19:27 | 32.68363 | -116.98354 | 3564 ft | 197 kts | 287° |
| 2026-05-05 19:27 | 32.68751 | -116.99873 | 3431 ft | 187 kts | 287° |
| 2026-05-05 19:28 | 32.69109 | -117.01325 | 3202 ft | 181 kts | 286° |
| 2026-05-05 19:28 | 32.69450 | -117.02744 | 2985 ft | 174 kts | 286° |
| 2026-05-05 19:28 | 32.69772 | -117.04090 | 2814 ft | 166 kts | 285° |
| 2026-05-05 19:28 | 32.70087 | -117.05412 | 2602 ft | 166 kts | 285° |
| 2026-05-05 19:29 | 32.70401 | -117.06723 | 2329 ft | 165 kts | 285° |
| 2026-05-05 19:29 | 32.70716 | -117.08032 | 2071 ft | 164 kts | 285° |
| 2026-05-05 19:29 | 32.71018 | -117.09287 | 1843 ft | 152 kts | 285° |
| 2026-05-05 19:29 | 32.71298 | -117.10450 | 1575 ft | 139 kts | 285° |
| 2026-05-05 19:30 | 32.71553 | -117.11508 | 1382 ft | 129 kts | 286° |
| 2026-05-05 19:30 | 32.71800 | -117.12523 | 1197 ft | 129 kts | 287° |
| 2026-05-05 19:30 | 32.72053 | -117.13544 | 1007 ft | 128 kts | 286° |
| 2026-05-05 19:30 | 32.72293 | -117.14555 | 817 ft | 128 kts | 285° |
| 2026-05-05 19:31 | 32.72531 | -117.15565 | 583 ft | 127 kts | 286° |
| 2026-05-05 19:31 | 32.72778 | -117.16574 | 409 ft | 127 kts | 286° |
| 2026-05-05 19:31 | 32.73019 | -117.17570 | 217 ft | 126 kts | 286° |
| 2026-05-05 19:31 | 32.73260 | -117.18570 | 56 ft | 123 kts | 286° |
| 2026-05-05 19:32 | 32.73465 | -117.19414 | 27 ft | 71 kts | 285° |
| 2026-05-05 19:32 | 32.73534 | -117.19754 | 27 ft | 21 kts | 258° |
| 2026-05-05 19:32 | 32.73491 | -117.19898 | 27 ft | 14 kts | 254° |
| 2026-05-05 19:32 | 32.73507 | -117.20013 | 27 ft | 13 kts | 285° |
| 2026-05-05 19:33 | 32.73532 | -117.20121 | 27 ft | 13 kts | 287° |
| 2026-05-05 19:33 | 32.73534 | -117.20222 | 27 ft | 12 kts | 225° |
| 2026-05-05 19:33 | 32.73455 | -117.20255 | 27 ft | 11 kts | 195° |
| 2026-05-05 19:33 | 32.73372 | -117.20275 | 27 ft | 12 kts | 185° |
| 2026-05-05 19:34 | 32.73336 | -117.20322 | 27 ft | 6 kts | 265° |
| 2026-05-05 19:34 | 32.73334 | -117.20345 | 27 ft | 0 kts | 264° |
| 2026-05-05 19:34 | 32.73334 | -117.20346 | 27 ft | 0 kts | 264° |